sensor_id;sensor_type;location;lat;lon;timestamp;pressure;altitude;pressure_sealevel;temperature
48854;BMP280;34673;52.808;17.856;2023-02-01T00:00:58;99260.63;;;2.60
48854;BMP280;34673;52.808;17.856;2023-02-01T00:03:25;99263.19;;;2.59
48854;BMP280;34673;52.808;17.856;2023-02-01T00:05:57;99257.22;;;2.58
48854;BMP280;34673;52.808;17.856;2023-02-01T00:08:24;99256.34;;;2.58
48854;BMP280;34673;52.808;17.856;2023-02-01T00:11:03;99260.59;;;2.57
48854;BMP280;34673;52.808;17.856;2023-02-01T00:13:31;99258.91;;;2.56
48854;BMP280;34673;52.808;17.856;2023-02-01T00:16:10;99265.72;;;2.57
48854;BMP280;34673;52.808;17.856;2023-02-01T00:18:39;99258.06;;;2.56
48854;BMP280;34673;52.808;17.856;2023-02-01T00:21:06;99272.56;;;2.61
48854;BMP280;34673;52.808;17.856;2023-02-01T00:23:34;99266.59;;;2.62
48854;BMP280;34673;52.808;17.856;2023-02-01T00:26:04;99270.00;;;2.63
48854;BMP280;34673;52.808;17.856;2023-02-01T00:28:31;99258.13;;;2.63
48854;BMP280;34673;52.808;17.856;2023-02-01T00:31:00;99247.88;;;2.62
48854;BMP280;34673;52.808;17.856;2023-02-01T00:33:29;99252.13;;;2.61
48854;BMP280;34673;52.808;17.856;2023-02-01T00:36:01;99250.41;;;2.57
48854;BMP280;34673;52.808;17.856;2023-02-01T00:38:32;99243.59;;;2.59
48854;BMP280;34673;52.808;17.856;2023-02-01T00:41:12;99252.16;;;2.64
48854;BMP280;34673;52.808;17.856;2023-02-01T00:43:40;99250.44;;;2.63
48854;BMP280;34673;52.808;17.856;2023-02-01T00:46:08;99244.47;;;2.63
48854;BMP280;34673;52.808;17.856;2023-02-01T00:48:35;99243.59;;;2.59
48854;BMP280;34673;52.808;17.856;2023-02-01T00:51:14;99243.59;;;2.56
48854;BMP280;34673;52.808;17.856;2023-02-01T00:53:42;99241.91;;;2.58
48854;BMP280;34673;52.808;17.856;2023-02-01T00:56:10;99252.97;;;2.60
48854;BMP280;34673;52.808;17.856;2023-02-01T00:58:37;99264.03;;;2.62
48854;BMP280;34673;52.808;17.856;2023-02-01T01:03:40;99266.69;;;2.72
48854;BMP280;34673;52.808;17.856;2023-02-01T01:06:11;99253.88;;;2.69
48854;BMP280;34673;52.808;17.856;2023-02-01T01:08:39;99255.59;;;2.70
48854;BMP280;34673;52.808;17.856;2023-02-01T01:11:08;99253.88;;;2.69
48854;BMP280;34673;52.808;17.856;2023-02-01T01:13:37;99250.47;;;2.70
48854;BMP280;34673;52.808;17.856;2023-02-01T01:16:06;99258.13;;;2.71
48854;BMP280;34673;52.808;17.856;2023-02-01T01:18:34;99259.00;;;2.72
48854;BMP280;34673;52.808;17.856;2023-02-01T01:21:04;99255.59;;;2.70
48854;BMP280;34673;52.808;17.856;2023-02-01T01:23:31;99250.47;;;2.66
48854;BMP280;34673;52.808;17.856;2023-02-01T01:25:58;99247.91;;;2.68
48854;BMP280;34673;52.808;17.856;2023-02-01T01:28:25;99252.16;;;2.64
48854;BMP280;34673;52.808;17.856;2023-02-01T01:30:52;99248.75;;;2.65
48854;BMP280;34673;52.808;17.856;2023-02-01T01:33:20;99246.19;;;2.64
48854;BMP280;34673;52.808;17.856;2023-02-01T01:35:47;99251.28;;;2.61
48854;BMP280;34673;52.808;17.856;2023-02-01T01:38:14;99259.81;;;2.67
48854;BMP280;34673;52.808;17.856;2023-02-01T01:40:45;99249.63;;;2.69
48854;BMP280;34673;52.808;17.856;2023-02-01T01:43:15;99241.94;;;2.67
48854;BMP280;34673;52.808;17.856;2023-02-01T01:45:42;99243.66;;;2.69
48854;BMP280;34673;52.808;17.856;2023-02-01T01:48:18;99241.97;;;2.71
48854;BMP280;34673;52.808;17.856;2023-02-01T01:50:57;99233.41;;;2.65
48854;BMP280;34673;52.808;17.856;2023-02-01T01:53:32;99259.84;;;2.72
48854;BMP280;34673;52.808;17.856;2023-02-01T01:56:00;99245.38;;;2.73
48854;BMP280;34673;52.808;17.856;2023-02-01T01:58:29;99253.91;;;2.72
48854;BMP280;34673;52.808;17.856;2023-02-01T02:00:59;99252.19;;;2.74
48854;BMP280;34673;52.808;17.856;2023-02-01T02:03:30;99243.72;;;2.75
48854;BMP280;34673;52.808;17.856;2023-02-01T02:06:02;99253.94;;;2.78
48854;BMP280;34673;52.808;17.856;2023-02-01T02:08:30;99230.09;;;2.79
48854;BMP280;34673;52.808;17.856;2023-02-01T02:10:58;99237.78;;;2.85
48854;BMP280;34673;52.808;17.856;2023-02-01T02:13:36;99243.75;;;2.87
48854;BMP280;34673;52.808;17.856;2023-02-01T02:16:32;99250.59;;;2.88
48854;BMP280;34673;52.808;17.856;2023-02-01T02:38:33;99266.63;;;2.67
48854;BMP280;34673;52.808;17.856;2023-02-01T02:41:08;99270.03;;;2.64
48854;BMP280;34673;52.808;17.856;2023-02-01T02:43:53;99270.00;;;2.63
48854;BMP280;34673;52.808;17.856;2023-02-01T02:46:47;99264.94;;;2.66
48854;BMP280;34673;52.808;17.856;2023-02-01T02:50:08;99260.72;;;2.73
48854;BMP280;34673;52.808;17.856;2023-02-01T02:53:02;99272.63;;;2.77
48854;BMP280;34673;52.808;17.856;2023-02-01T02:55:50;99273.50;;;2.79
48854;BMP280;34673;52.808;17.856;2023-02-01T02:58:19;99279.50;;;2.84
48854;BMP280;34673;52.808;17.856;2023-02-01T03:01:06;99288.91;;;2.88
48854;BMP280;34673;52.808;17.856;2023-02-01T03:03:52;99294.84;;;2.87
48854;BMP280;34673;52.808;17.856;2023-02-01T03:06:38;99284.63;;;2.87
48854;BMP280;34673;52.808;17.856;2023-02-01T03:09:12;99291.47;;;2.88
48854;BMP280;34673;52.808;17.856;2023-02-01T03:11:42;99296.56;;;2.88
48854;BMP280;34673;52.808;17.856;2023-02-01T03:14:32;99301.66;;;2.88
48854;BMP280;34673;52.808;17.856;2023-02-01T03:17:19;99298.25;;;2.89
48854;BMP280;34673;52.808;17.856;2023-02-01T03:19:51;99300.78;;;2.87
48854;BMP280;34673;52.808;17.856;2023-02-01T03:22:24;99282.91;;;2.86
48854;BMP280;34673;52.808;17.856;2023-02-01T03:24:55;99290.59;;;2.89
48854;BMP280;34673;52.808;17.856;2023-02-01T03:30:38;99281.25;;;2.91
48854;BMP280;34673;52.808;17.856;2023-02-01T03:33:19;99275.25;;;2.87
48854;BMP280;34673;52.808;17.856;2023-02-01T03:35:51;99293.16;;;2.92
48854;BMP280;34673;52.808;17.856;2023-02-01T03:40:55;99289.72;;;2.87
48854;BMP280;34673;52.808;17.856;2023-02-01T03:43:25;99282.09;;;2.92
48854;BMP280;34673;52.808;17.856;2023-02-01T03:46:02;99282.97;;;2.95
48854;BMP280;34673;52.808;17.856;2023-02-01T03:48:32;99280.44;;;2.97
48854;BMP280;34673;52.808;17.856;2023-02-01T03:51:02;99281.28;;;2.97
48854;BMP280;34673;52.808;17.856;2023-02-01T03:53:34;99281.28;;;2.97
48854;BMP280;34673;52.808;17.856;2023-02-01T03:56:05;99279.59;;;2.99
48854;BMP280;34673;52.808;17.856;2023-02-01T03:58:33;99272.75;;;2.98
48854;BMP280;34673;52.808;17.856;2023-02-01T04:01:00;99269.38;;;2.99
48854;BMP280;34673;52.808;17.856;2023-02-01T04:03:30;99274.47;;;2.99
48854;BMP280;34673;52.808;17.856;2023-02-01T04:05:58;99262.53;;;2.95
48854;BMP280;34673;52.808;17.856;2023-02-01T04:08:27;99277.88;;;2.98
48854;BMP280;34673;52.808;17.856;2023-02-01T04:10:55;99271.91;;;2.95
48854;BMP280;34673;52.808;17.856;2023-02-01T04:13:22;99277.84;;;2.95
48854;BMP280;34673;52.808;17.856;2023-02-01T04:15:49;99265.94;;;2.94
48854;BMP280;34673;52.808;17.856;2023-02-01T04:18:19;99274.41;;;2.90
48854;BMP280;34673;52.808;17.856;2023-02-01T04:20:46;99270.16;;;2.89
48854;BMP280;34673;52.808;17.856;2023-02-01T04:23:13;99257.38;;;2.83
48854;BMP280;34673;52.808;17.856;2023-02-01T04:25:42;99268.47;;;2.88
48854;BMP280;34673;52.808;17.856;2023-02-01T04:28:09;99272.69;;;2.83
48854;BMP280;34673;52.808;17.856;2023-02-01T04:30:36;99255.66;;;2.82
48854;BMP280;34673;52.808;17.856;2023-02-01T04:33:04;99273.53;;;2.80
48854;BMP280;34673;52.808;17.856;2023-02-01T04:35:34;99267.59;;;2.83
48854;BMP280;34673;52.808;17.856;2023-02-01T04:38:01;99270.13;;;2.80
48854;BMP280;34673;52.808;17.856;2023-02-01T04:40:28;99272.69;;;2.83
48854;BMP280;34673;52.808;17.856;2023-02-01T04:42:55;99269.28;;;2.84
48854;BMP280;34673;52.808;17.856;2023-02-01T04:45:22;99267.59;;;2.86
48854;BMP280;34673;52.808;17.856;2023-02-01T04:47:49;99259.94;;;2.87
48854;BMP280;34673;52.808;17.856;2023-02-01T04:50:16;99269.31;;;2.90
48854;BMP280;34673;52.808;17.856;2023-02-01T04:52:43;99260.81;;;2.91
48854;BMP280;34673;52.808;17.856;2023-02-01T04:55:12;99250.63;;;2.94
48854;BMP280;34673;52.808;17.856;2023-02-01T04:57:42;99263.38;;;2.94
48854;BMP280;34673;52.808;17.856;2023-02-01T05:00:10;99254.88;;;2.94
48854;BMP280;34673;52.808;17.856;2023-02-01T05:02:37;99250.59;;;2.91
48854;BMP280;34673;52.808;17.856;2023-02-01T05:05:05;99252.31;;;2.95
48854;BMP280;34673;52.808;17.856;2023-02-01T05:07:32;99248.94;;;2.96
48854;BMP280;34673;52.808;17.856;2023-02-01T05:09:59;99245.50;;;2.91
48854;BMP280;34673;52.808;17.856;2023-02-01T05:12:26;99253.19;;;2.97
48854;BMP280;34673;52.808;17.856;2023-02-01T05:15:12;99257.47;;;3.01
48854;BMP280;34673;52.808;17.856;2023-02-01T05:17:39;99250.66;;;3.03
48854;BMP280;34673;52.808;17.856;2023-02-01T05:20:08;99236.16;;;3.01
48854;BMP280;34673;52.808;17.856;2023-02-01T05:22:35;99237.03;;;3.04
48854;BMP280;34673;52.808;17.856;2023-02-01T05:25:02;99242.16;;;3.07
48854;BMP280;34673;52.808;17.856;2023-02-01T05:27:30;99244.69;;;3.06
48854;BMP280;34673;52.808;17.856;2023-02-01T05:29:57;99233.59;;;2.99
48854;BMP280;34673;52.808;17.856;2023-02-01T05:32:24;99248.97;;;3.05
48854;BMP280;34673;52.808;17.856;2023-02-01T05:34:51;99249.81;;;3.12
48854;BMP280;34673;52.808;17.856;2023-02-01T05:37:18;99252.38;;;3.10
48854;BMP280;34673;52.808;17.856;2023-02-01T05:39:46;99245.59;;;3.13
48854;BMP280;34673;52.808;17.856;2023-02-01T05:42:13;99248.97;;;3.11
48854;BMP280;34673;52.808;17.856;2023-02-01T05:44:40;99237.06;;;3.14
48854;BMP280;34673;52.808;17.856;2023-02-01T05:47:07;99240.50;;;3.16
48854;BMP280;34673;52.808;17.856;2023-02-01T05:49:34;99242.19;;;3.17
48854;BMP280;34673;52.808;17.856;2023-02-01T05:52:01;99237.91;;;3.17
48854;BMP280;34673;52.808;17.856;2023-02-01T05:54:28;99232.81;;;3.09
48854;BMP280;34673;52.808;17.856;2023-02-01T05:56:56;99239.63;;;3.20
48854;BMP280;34673;52.808;17.856;2023-02-01T05:59:23;99243.03;;;3.20
48854;BMP280;34673;52.808;17.856;2023-02-01T06:01:50;99249.03;;;3.24
48854;BMP280;34673;52.808;17.856;2023-02-01T06:04:17;99243.06;;;3.23
48854;BMP280;34673;52.808;17.856;2023-02-01T06:06:44;99243.06;;;3.23
48854;BMP280;34673;52.808;17.856;2023-02-01T06:09:11;99231.97;;;3.23
48854;BMP280;34673;52.808;17.856;2023-02-01T06:11:39;99243.06;;;3.25
48854;BMP280;34673;52.808;17.856;2023-02-01T06:14:07;99249.03;;;3.24
48854;BMP280;34673;52.808;17.856;2023-02-01T06:16:34;99250.72;;;3.25
48854;BMP280;34673;52.808;17.856;2023-02-01T06:19:01;99257.56;;;3.26
48854;BMP280;34673;52.808;17.856;2023-02-01T06:21:28;99252.47;;;3.26
48854;BMP280;34673;52.808;17.856;2023-02-01T06:23:56;99261.81;;;3.24
48854;BMP280;34673;52.808;17.856;2023-02-01T06:26:24;99257.53;;;3.20
48854;BMP280;34673;52.808;17.856;2023-02-01T06:28:52;99244.72;;;3.12
48854;BMP280;34673;52.808;17.856;2023-02-01T06:31:19;99266.06;;;3.22
48854;BMP280;34673;52.808;17.856;2023-02-01T06:33:46;99276.28;;;3.19
48854;BMP280;34673;52.808;17.856;2023-02-01T06:36:14;99283.06;;;3.14
48854;BMP280;34673;52.808;17.856;2023-02-01T06:38:42;99281.38;;;3.19
48854;BMP280;34673;52.808;17.856;2023-02-01T06:41:09;99283.06;;;3.20
48854;BMP280;34673;52.808;17.856;2023-02-01T06:43:37;99283.06;;;3.14
48854;BMP280;34673;52.808;17.856;2023-02-01T06:46:07;99269.38;;;3.02
48854;BMP280;34673;52.808;17.856;2023-02-01T06:48:35;99274.50;;;3.02
48854;BMP280;34673;52.808;17.856;2023-02-01T06:51:02;99283.03;;;3.01
48854;BMP280;34673;52.808;17.856;2023-02-01T06:53:29;99279.56;;;2.96
48854;BMP280;34673;52.808;17.856;2023-02-01T06:56:01;99283.03;;;3.01
48854;BMP280;34673;52.808;17.856;2023-02-01T06:58:31;99281.28;;;3.00
48854;BMP280;34673;52.808;17.856;2023-02-01T07:01:07;99291.50;;;3.00
48854;BMP280;34673;52.808;17.856;2023-02-01T07:03:35;99275.28;;;2.92
48854;BMP280;34673;52.808;17.856;2023-02-01T07:06:03;99283.03;;;3.01
48854;BMP280;34673;52.808;17.856;2023-02-01T07:08:33;99286.38;;;2.97
48854;BMP280;34673;52.808;17.856;2023-02-01T07:11:05;99289.75;;;2.93
48854;BMP280;34673;52.808;17.856;2023-02-01T07:13:33;99288.06;;;2.95
48854;BMP280;34673;52.808;17.856;2023-02-01T07:16:02;99294.91;;;2.96
48854;BMP280;34673;52.808;17.856;2023-02-01T07:18:30;99286.41;;;2.99
48854;BMP280;34673;52.808;17.856;2023-02-01T07:20:58;99282.16;;;2.99
48854;BMP280;34673;52.808;17.856;2023-02-01T07:23:26;99288.13;;;3.01
48854;BMP280;34673;52.808;17.856;2023-02-01T07:26:05;99273.63;;;2.97
48854;BMP280;34673;52.808;17.856;2023-02-01T07:28:35;99291.50;;;2.97
48854;BMP280;34673;52.808;17.856;2023-02-01T07:31:12;99290.66;;;2.97
48854;BMP280;34673;52.808;17.856;2023-02-01T07:33:42;99285.53;;;2.94
48854;BMP280;34673;52.808;17.856;2023-02-01T07:36:16;99281.25;;;2.91
48854;BMP280;34673;52.808;17.856;2023-02-01T07:38:43;99286.34;;;2.89
48854;BMP280;34673;52.808;17.856;2023-02-01T07:41:11;99300.84;;;2.91
48854;BMP280;34673;52.808;17.856;2023-02-01T07:43:38;99286.34;;;2.88
48854;BMP280;34673;52.808;17.856;2023-02-01T07:46:06;99280.34;;;2.83
48854;BMP280;34673;52.808;17.856;2023-02-01T07:48:33;99294.84;;;2.90
48854;BMP280;34673;52.808;17.856;2023-02-01T07:51:03;99294.88;;;2.93
48854;BMP280;34673;52.808;17.856;2023-02-01T07:53:32;99294.88;;;2.92
48854;BMP280;34673;52.808;17.856;2023-02-01T07:55:59;99308.50;;;2.95
48854;BMP280;34673;52.808;17.856;2023-02-01T07:58:27;99295.75;;;2.97
48854;BMP280;34673;52.808;17.856;2023-02-01T08:00:55;99299.19;;;3.03
48854;BMP280;34673;52.808;17.856;2023-02-01T08:03:57;99306.91;;;3.09
48854;BMP280;34673;52.808;17.856;2023-02-01T08:06:31;99301.81;;;3.16
48854;BMP280;34673;52.808;17.856;2023-02-01T08:08:58;99300.97;;;3.18
48854;BMP280;34673;52.808;17.856;2023-02-01T08:11:26;99303.53;;;3.20
48854;BMP280;34673;52.808;17.856;2023-02-01T08:13:53;99306.97;;;3.25
48854;BMP280;34673;52.808;17.856;2023-02-01T08:16:21;99302.69;;;3.22
48854;BMP280;34673;52.808;17.856;2023-02-01T08:18:49;99300.97;;;3.20
48854;BMP280;34673;52.808;17.856;2023-02-01T08:21:19;99301.81;;;3.16
48854;BMP280;34673;52.808;17.856;2023-02-01T08:23:49;99296.69;;;3.13
48854;BMP280;34673;52.808;17.856;2023-02-01T08:26:22;99293.28;;;3.10
48854;BMP280;34673;52.808;17.856;2023-02-01T08:28:53;99285.59;;;3.10
48854;BMP280;34673;52.808;17.856;2023-02-01T08:31:22;99292.41;;;3.11
48854;BMP280;34673;52.808;17.856;2023-02-01T08:33:52;99289.88;;;3.10
48854;BMP280;34673;52.808;17.856;2023-02-01T08:36:21;99279.63;;;3.08
48854;BMP280;34673;52.808;17.856;2023-02-01T08:38:49;99293.28;;;3.10
48854;BMP280;34673;52.808;17.856;2023-02-01T08:41:18;99288.16;;;3.10
48854;BMP280;34673;52.808;17.856;2023-02-01T08:43:46;99289.00;;;3.14
48854;BMP280;34673;52.808;17.856;2023-02-01T08:46:15;99283.06;;;3.17
48854;BMP280;34673;52.808;17.856;2023-02-01T08:48:43;99277.94;;;3.14
48854;BMP280;34673;52.808;17.856;2023-02-01T08:51:12;99286.50;;;3.22
48854;BMP280;34673;52.808;17.856;2023-02-01T08:53:40;99284.81;;;3.24
48854;BMP280;34673;52.808;17.856;2023-02-01T08:56:09;99277.97;;;3.23
48854;BMP280;34673;52.808;17.856;2023-02-01T08:58:37;99277.13;;;3.18
48854;BMP280;34673;52.808;17.856;2023-02-01T09:01:09;99276.25;;;3.16
48854;BMP280;34673;52.808;17.856;2023-02-01T09:03:36;99281.38;;;3.13
48854;BMP280;34673;52.808;17.856;2023-02-01T09:06:08;99277.09;;;3.13
48854;BMP280;34673;52.808;17.856;2023-02-01T09:08:37;99276.19;;;3.06
48854;BMP280;34673;52.808;17.856;2023-02-01T09:11:07;99281.38;;;3.16
48854;BMP280;34673;52.808;17.856;2023-02-01T09:13:34;99271.16;;;3.16
48854;BMP280;34673;52.808;17.856;2023-02-01T09:16:03;99260.91;;;3.13
48854;BMP280;34673;52.808;17.856;2023-02-01T09:18:30;99270.31;;;3.21
48854;BMP280;34673;52.808;17.856;2023-02-01T09:20:58;99278.00;;;3.24
48854;BMP280;34673;52.808;17.856;2023-02-01T09:23:25;99272.91;;;3.26
48854;BMP280;34673;52.808;17.856;2023-02-01T09:25:52;99294.19;;;3.26
48854;BMP280;34673;52.808;17.856;2023-02-01T09:28:19;99289.06;;;3.28
48854;BMP280;34673;52.808;17.856;2023-02-01T09:30:47;99303.56;;;3.26
48854;BMP280;34673;52.808;17.856;2023-02-01T09:33:14;99295.88;;;3.23
48854;BMP280;34673;52.808;17.856;2023-02-01T09:35:41;99286.50;;;3.22
48854;BMP280;34673;52.808;17.856;2023-02-01T09:38:08;99288.19;;;3.23
48854;BMP280;34673;52.808;17.856;2023-02-01T09:40:35;99290.75;;;3.21
48854;BMP280;34673;52.808;17.856;2023-02-01T09:43:25;99298.38;;;3.14
48854;BMP280;34673;52.808;17.856;2023-02-01T09:48:49;99283.06;;;3.20
48854;BMP280;34673;52.808;17.856;2023-02-01T09:51:24;99266.03;;;3.16
48854;BMP280;34673;52.808;17.856;2023-02-01T09:54:01;99272.00;;;3.13
48854;BMP280;34673;52.808;17.856;2023-02-01T09:56:47;99271.13;;;3.13
48854;BMP280;34673;52.808;17.856;2023-02-01T09:59:39;99274.50;;;3.08
48854;BMP280;34673;52.808;17.856;2023-02-01T10:02:20;99269.38;;;3.02
48854;BMP280;34673;52.808;17.856;2023-02-01T10:04:49;99271.06;;;3.00
48854;BMP280;34673;52.808;17.856;2023-02-01T10:10:02;99257.50;;;3.14
48854;BMP280;34673;52.808;17.856;2023-02-01T10:26:19;99229.56;;;3.89
48854;BMP280;34673;52.808;17.856;2023-02-01T10:28:52;99230.41;;;3.95
48854;BMP280;34673;52.808;17.856;2023-02-01T10:31:23;99232.97;;;4.02
48854;BMP280;34673;52.808;17.856;2023-02-01T10:34:09;99225.31;;;4.11
48854;BMP280;34673;52.808;17.856;2023-02-01T10:36:42;99227.00;;;4.15
48854;BMP280;34673;52.808;17.856;2023-02-01T10:39:13;99213.38;;;4.22
48854;BMP280;34673;52.808;17.856;2023-02-01T10:41:41;99220.19;;;4.29
48854;BMP280;34673;52.808;17.856;2023-02-01T10:44:18;99209.94;;;4.35
48854;BMP280;34673;52.808;17.856;2023-02-01T10:46:46;99210.81;;;4.37
48854;BMP280;34673;52.808;17.856;2023-02-01T10:49:18;99199.72;;;4.32
48854;BMP280;34673;52.808;17.856;2023-02-01T10:51:53;99204.84;;;4.29
48854;BMP280;34673;52.808;17.856;2023-02-01T10:54:31;99201.41;;;4.33
48854;BMP280;34673;52.808;17.856;2023-02-01T10:56:58;99194.56;;;4.38
48854;BMP280;34673;52.808;17.856;2023-02-01T10:59:28;99194.53;;;4.48
48854;BMP280;34673;52.808;17.856;2023-02-01T11:02:02;99213.31;;;4.56
48854;BMP280;34673;52.808;17.856;2023-02-01T11:04:34;99204.78;;;4.57
48854;BMP280;34673;52.808;17.856;2023-02-01T11:09:37;99203.06;;;4.50
48854;BMP280;34673;52.808;17.856;2023-02-01T11:12:30;99208.22;;;4.47
48854;BMP280;34673;52.808;17.856;2023-02-01T11:15:19;99201.41;;;4.42
48854;BMP280;34673;52.808;17.856;2023-02-01T11:17:48;99197.97;;;4.43
48854;BMP280;34673;52.808;17.856;2023-02-01T11:22:58;99197.13;;;4.41
48854;BMP280;34673;52.808;17.856;2023-02-01T11:25:26;99195.41;;;4.47
48854;BMP280;34673;52.808;17.856;2023-02-01T11:27:54;99203.06;;;4.50
48854;BMP280;34673;52.808;17.856;2023-02-01T11:30:36;99194.56;;;4.51
48854;BMP280;34673;52.808;17.856;2023-02-01T11:33:05;99192.84;;;4.50
48854;BMP280;34673;52.808;17.856;2023-02-01T11:35:37;99193.72;;;4.46
48854;BMP280;34673;52.808;17.856;2023-02-01T11:38:20;99204.81;;;4.41
48854;BMP280;34673;52.808;17.856;2023-02-01T11:40:48;99189.47;;;4.35
48854;BMP280;34673;52.808;17.856;2023-02-01T11:43:27;99189.47;;;4.26
48854;BMP280;34673;52.808;17.856;2023-02-01T11:46:03;99194.59;;;4.26
48854;BMP280;34673;52.808;17.856;2023-02-01T11:48:32;99192.88;;;4.22
48854;BMP280;34673;52.808;17.856;2023-02-01T11:51:31;99209.94;;;4.20
48854;BMP280;34673;52.808;17.856;2023-02-01T11:57:18;99201.41;;;4.15
48854;BMP280;34673;52.808;17.856;2023-02-01T12:00:23;99199.72;;;4.11
48854;BMP280;34673;52.808;17.856;2023-02-01T12:12:03;99201.44;;;4.03
48854;BMP280;34673;52.808;17.856;2023-02-01T12:36:26;99173.28;;;4.03
48854;BMP280;34673;52.808;17.856;2023-02-01T12:44:26;99179.25;;;3.95
48854;BMP280;34673;52.808;17.856;2023-02-01T12:49:54;99173.31;;;3.96
48854;BMP280;34673;52.808;17.856;2023-02-01T12:52:27;99178.41;;;3.98
48854;BMP280;34673;52.808;17.856;2023-02-01T12:55:31;99175.00;;;3.99
48854;BMP280;34673;52.808;17.856;2023-02-01T12:58:09;99165.63;;;3.99
48854;BMP280;34673;52.808;17.856;2023-02-01T13:00:41;99179.25;;;4.02
48854;BMP280;34673;52.808;17.856;2023-02-01T13:03:40;99175.84;;;4.03
48854;BMP280;34673;52.808;17.856;2023-02-01T13:06:31;99185.22;;;4.04
48854;BMP280;34673;52.808;17.856;2023-02-01T13:11:46;99177.53;;;4.04
48854;BMP280;34673;52.808;17.856;2023-02-01T13:14:29;99192.06;;;4.11
48854;BMP280;34673;52.808;17.856;2023-02-01T13:17:02;99196.31;;;4.09
48854;BMP280;34673;52.808;17.856;2023-02-01T13:19:40;99187.75;;;4.10
48854;BMP280;34673;52.808;17.856;2023-02-01T13:25:29;99187.78;;;4.07
48854;BMP280;34673;52.808;17.856;2023-02-01T13:28:02;99184.38;;;4.05
48854;BMP280;34673;52.808;17.856;2023-02-01T13:36:39;99194.59;;;4.11
48854;BMP280;34673;52.808;17.856;2023-02-01T13:41:53;99192.88;;;4.10
48854;BMP280;34673;52.808;17.856;2023-02-01T13:44:36;99191.19;;;4.12
48854;BMP280;34673;52.808;17.856;2023-02-01T13:47:18;99192.03;;;4.14
48854;BMP280;34673;52.808;17.856;2023-02-01T13:49:48;99187.78;;;4.13
48854;BMP280;34673;52.808;17.856;2023-02-01T13:52:32;99191.16;;;4.18
48854;BMP280;34673;52.808;17.856;2023-02-01T13:55:23;99199.72;;;4.20
48854;BMP280;34673;52.808;17.856;2023-02-01T13:58:00;99189.47;;;4.17
48854;BMP280;34673;52.808;17.856;2023-02-01T14:00:36;99197.16;;;4.17
48854;BMP280;34673;52.808;17.856;2023-02-01T14:03:21;99198.84;;;4.15
48854;BMP280;34673;52.808;17.856;2023-02-01T14:08:43;99206.53;;;4.12
48854;BMP280;34673;52.808;17.856;2023-02-01T14:11:33;99201.41;;;4.12
48854;BMP280;34673;52.808;17.856;2023-02-01T14:21:51;99194.59;;;4.11
48854;BMP280;34673;52.808;17.856;2023-02-01T14:24:27;99195.44;;;4.10
48854;BMP280;34673;52.808;17.856;2023-02-01T14:26:58;99203.13;;;4.10
48854;BMP280;34673;52.808;17.856;2023-02-01T14:29:33;99191.19;;;4.06
48854;BMP280;34673;52.808;17.856;2023-02-01T14:32:11;99205.69;;;4.10
48854;BMP280;34673;52.808;17.856;2023-02-01T14:42:38;99202.28;;;4.00
48854;BMP280;34673;52.808;17.856;2023-02-01T15:00:57;99209.97;;;3.94
48854;BMP280;34673;52.808;17.856;2023-02-01T15:06:44;99219.34;;;3.92
48854;BMP280;34673;52.808;17.856;2023-02-01T15:09:19;99202.28;;;3.78
48854;BMP280;34673;52.808;17.856;2023-02-01T15:14:44;99216.78;;;3.87
48854;BMP280;34673;52.808;17.856;2023-02-01T15:17:23;99222.75;;;3.88
48854;BMP280;34673;52.808;17.856;2023-02-01T15:20:00;99217.63;;;3.86
48854;BMP280;34673;52.808;17.856;2023-02-01T15:22:31;99216.78;;;3.81
48854;BMP280;34673;52.808;17.856;2023-02-01T15:24:59;99215.09;;;3.83
48854;BMP280;34673;52.808;17.856;2023-02-01T15:27:28;99213.34;;;3.79
48854;BMP280;34673;52.808;17.856;2023-02-01T15:30:08;99221.88;;;3.84
48854;BMP280;34673;52.808;17.856;2023-02-01T15:32:39;99225.31;;;3.80
48854;BMP280;34673;52.808;17.856;2023-02-01T15:35:37;99228.69;;;3.82
48854;BMP280;34673;52.808;17.856;2023-02-01T15:43:20;99244.91;;;3.80
48854;BMP280;34673;52.808;17.856;2023-02-01T15:45:49;99237.25;;;3.78
48854;BMP280;34673;52.808;17.856;2023-02-01T15:48:22;99233.81;;;3.76
48854;BMP280;34673;52.808;17.856;2023-02-01T15:50:52;99236.38;;;3.79
48854;BMP280;34673;52.808;17.856;2023-02-01T15:53:24;99241.50;;;3.76
48854;BMP280;34673;52.808;17.856;2023-02-01T15:55:55;99237.25;;;3.75
48854;BMP280;34673;52.808;17.856;2023-02-01T15:58:23;99239.78;;;3.73
48854;BMP280;34673;52.808;17.856;2023-02-01T16:01:00;99233.81;;;3.73
48854;BMP280;34673;52.808;17.856;2023-02-01T16:03:45;99223.59;;;3.73
48854;BMP280;34673;52.808;17.856;2023-02-01T16:08:51;99227.84;;;3.68
48854;BMP280;34673;52.808;17.856;2023-02-01T16:11:30;99235.50;;;3.71
48854;BMP280;34673;52.808;17.856;2023-02-01T16:14:01;99240.63;;;3.68
48854;BMP280;34673;52.808;17.856;2023-02-01T16:16:29;99227.81;;;3.63
48854;BMP280;34673;52.808;17.856;2023-02-01T16:18:56;99232.09;;;3.60
48854;BMP280;34673;52.808;17.856;2023-02-01T16:21:23;99232.09;;;3.57
48854;BMP280;34673;52.808;17.856;2023-02-01T16:23:51;99239.75;;;3.57
48854;BMP280;34673;52.808;17.856;2023-02-01T16:26:19;99228.66;;;3.54
48854;BMP280;34673;52.808;17.856;2023-02-01T16:28:47;99224.41;;;3.49
48854;BMP280;34673;52.808;17.856;2023-02-01T16:31:17;99218.44;;;3.45
48854;BMP280;34673;52.808;17.856;2023-02-01T16:33:51;99227.78;;;3.42
48854;BMP280;34673;52.808;17.856;2023-02-01T16:36:18;99226.06;;;3.36
48854;BMP280;34673;52.808;17.856;2023-02-01T16:38:46;99218.38;;;3.33
48854;BMP280;34673;52.808;17.856;2023-02-01T16:41:17;99220.13;;;3.34
48854;BMP280;34673;52.808;17.856;2023-02-01T16:43:44;99215.84;;;3.28
48854;BMP280;34673;52.808;17.856;2023-02-01T16:46:19;99223.50;;;3.30
48854;BMP280;34673;52.808;17.856;2023-02-01T16:48:57;99217.50;;;3.25
48854;BMP280;34673;52.808;17.856;2023-02-01T16:51:28;99223.47;;;3.24
48854;BMP280;34673;52.808;17.856;2023-02-01T16:53:59;99226.88;;;3.23
48854;BMP280;34673;52.808;17.856;2023-02-01T16:56:31;99221.75;;;3.20
48854;BMP280;34673;52.808;17.856;2023-02-01T16:59:02;99226.84;;;3.20
48854;BMP280;34673;52.808;17.856;2023-02-01T17:01:29;99227.72;;;3.16
48854;BMP280;34673;52.808;17.856;2023-02-01T17:03:56;99223.44;;;3.15
48854;BMP280;34673;52.808;17.856;2023-02-01T17:06:24;99228.53;;;3.11
48854;BMP280;34673;52.808;17.856;2023-02-01T17:08:54;99226.84;;;3.10
48854;BMP280;34673;52.808;17.856;2023-02-01T17:11:22;99225.16;;;3.13
48854;BMP280;34673;52.808;17.856;2023-02-01T17:13:50;99221.72;;;3.10